Time;durP1;ratioP1;P1;durP2;ratioP2;P2;SDS_P1;SDS_P2;PMS_P1;PMS_P2;Temp;Humidity;BMP_temperature;BMP_pressure;BME280_temperature;BME280_humidity;BME280_pressure;Samples;Min_cycle;Max_cycle;Signal;HPM_P1;HPM_P2
2024/03/24 00:01:09;;;;;;;7.13;3.80;;;;;;;5.97;56.24;94080.84;5115239;27;20037;-77
2024/03/24 00:03:34;;;;;;;4.97;3.72;;;;;;;6.05;57.58;94093.16;5119214;27;20022;-75
2024/03/24 00:06:00;;;;;;;6.38;3.95;;;;;;;5.98;55.72;94091.97;5135791;27;20126;-75
2024/03/24 00:08:25;;;;;;;7.15;4.15;;;;;;;5.93;55.37;94096.63;5116109;27;20027;-75
2024/03/24 00:10:51;;;;;;;6.65;4.10;;;;;;;6.02;55.27;94085.66;5146361;27;20038;-75
2024/03/24 00:13:16;;;;;;;8.73;4.05;;;;;;;5.97;56.28;94064.56;5149694;27;20026;-75
2024/03/24 00:15:42;;;;;;;6.80;4.50;;;;;;;5.99;55.36;94063.50;5134248;27;20541;-75
2024/03/24 00:18:07;;;;;;;6.38;4.00;;;;;;;6.21;56.88;94073.00;5118126;27;20041;-75
2024/03/24 00:20:34;;;;;;;7.38;4.50;;;;;;;5.99;56.62;94070.41;5126213;27;20035;-75
2024/03/24 00:22:59;;;;;;;6.07;4.10;;;;;;;5.95;55.69;94076.75;5115285;27;20057;-75
2024/03/24 00:25:24;;;;;;;7.07;4.15;;;;;;;5.79;55.95;94090.78;5097074;27;20063;-75
2024/03/24 00:27:50;;;;;;;7.57;4.80;;;;;;;5.78;56.47;94083.97;5148947;27;20026;-75
2024/03/24 00:30:15;;;;;;;13.18;6.93;;;;;;;5.46;57.96;94080.38;5108957;27;20050;-76
2024/03/24 00:32:41;;;;;;;9.77;6.45;;;;;;;5.34;58.52;94084.69;5114635;27;20041;-75
2024/03/24 00:35:06;;;;;;;8.60;5.95;;;;;;;5.24;59.77;94082.00;5113966;27;20048;-75
2024/03/24 00:37:32;;;;;;;8.90;5.82;;;;;;;5.49;59.40;94085.31;5133285;27;20106;-76
2024/03/24 00:39:58;;;;;;;11.07;6.32;;;;;;;5.46;60.42;94080.38;5111906;27;20047;-75
2024/03/24 00:42:23;;;;;;;7.25;4.30;;;;;;;5.18;59.74;94068.72;5117613;27;20023;-75
2024/03/24 00:44:48;;;;;;;6.78;4.70;;;;;;;4.95;59.08;94031.81;5110178;27;20075;-76
2024/03/24 00:47:14;;;;;;;5.70;4.80;;;;;;;4.94;59.92;94067.03;5152454;27;20023;-76
2024/03/24 00:49:39;;;;;;;8.15;5.15;;;;;;;4.99;59.76;94075.25;5108575;27;20594;-75
2024/03/24 00:52:05;;;;;;;8.45;5.10;;;;;;;5.08;60.01;94066.84;5103681;27;20038;-75
2024/03/24 00:54:31;;;;;;;6.50;4.07;;;;;;;5.09;60.86;94060.75;5132598;27;20027;-74
2024/03/24 00:56:56;;;;;;;5.13;3.92;;;;;;;5.11;61.04;94043.44;5100452;27;20392;-74
2024/03/24 00:59:21;;;;;;;5.32;3.28;;;;;;;4.89;61.23;94033.88;5132853;27;20427;-74
2024/03/24 01:01:47;;;;;;;4.72;3.47;;;;;;;5.09;62.54;94055.59;5131003;27;20038;-74
2024/03/24 01:04:12;;;;;;;7.45;2.95;;;;;;;5.04;61.97;94056.88;5133977;27;20027;-75
2024/03/24 01:06:37;;;;;;;4.72;3.25;;;;;;;5.04;60.49;94054.28;5127899;27;20054;-75
2024/03/24 01:09:03;;;;;;;5.22;3.65;;;;;;;4.85;60.23;94058.22;5134041;27;20019;-73
2024/03/24 01:11:29;;;;;;;7.03;4.07;;;;;;;4.64;60.76;94039.16;5142914;27;20039;-75
2024/03/24 01:13:55;;;;;;;7.97;4.32;;;;;;;4.48;61.37;94035.13;5131992;27;20052;-75
2024/03/24 01:16:21;;;;;;;6.43;3.88;;;;;;;4.41;62.67;94027.97;5116990;27;20304;-75
2024/03/24 01:18:46;;;;;;;5.65;3.75;;;;;;;4.77;63.61;94039.94;5132751;27;20080;-74
2024/03/24 01:21:12;;;;;;;4.82;3.13;;;;;;;4.62;62.57;94030.75;5136774;27;20072;-74
2024/03/24 01:23:37;;;;;;;5.13;3.35;;;;;;;4.50;62.49;94011.88;5104022;27;20480;-74
2024/03/24 01:26:03;;;;;;;5.70;4.05;;;;;;;4.43;62.52;94021.78;5151717;27;20039;-74
2024/03/24 01:28:28;;;;;;;7.28;3.92;;;;;;;4.34;62.29;94006.16;5147319;27;20053;-74
2024/03/24 01:30:54;;;;;;;6.63;4.63;;;;;;;4.72;62.26;94008.56;5133236;27;20046;-75
2024/03/24 01:33:19;;;;;;;7.43;4.20;;;;;;;4.58;62.79;93998.47;5101763;27;20024;-75
2024/03/24 01:35:46;;;;;;;5.38;3.58;;;;;;;4.80;62.70;94016.56;5092491;27;20039;-74
2024/03/24 01:38:11;;;;;;;6.30;4.28;;;;;;;4.61;63.24;93999.06;5116782;27;20059;-74
2024/03/24 01:40:37;;;;;;;7.05;3.80;;;;;;;4.55;63.89;93994.34;5131767;27;20033;-74
2024/03/24 01:43:06;;;;;;;9.00;4.65;;;;;;;4.40;64.67;94006.56;5085150;27;20241;-75
2024/03/24 01:45:32;;;;;;;6.32;4.40;;;;;;;4.43;63.28;94011.50;5105112;27;20027;-75
2024/03/24 01:47:58;;;;;;;8.52;5.78;;;;;;;4.55;63.24;94014.94;5114913;27;20544;-74
2024/03/24 01:50:24;;;;;;;15.07;8.32;;;;;;;4.67;62.75;94015.78;5129518;27;20027;-75
2024/03/24 01:52:49;;;;;;;9.57;6.10;;;;;;;4.40;62.80;93985.16;5120279;27;20018;-75
2024/03/24 01:55:14;;;;;;;7.35;5.18;;;;;;;4.62;63.20;94000.69;5099668;27;20026;-75
2024/03/24 01:57:40;;;;;;;6.75;4.65;;;;;;;4.79;63.95;94012.34;5081502;27;20408;-75
2024/03/24 02:00:08;;;;;;;6.63;4.47;;;;;;;4.63;64.29;94007.47;5095356;28;20108;-74
2024/03/24 02:02:33;;;;;;;6.22;3.78;;;;;;;4.56;64.39;93997.75;5143043;27;20102;-74
2024/03/24 02:04:58;;;;;;;5.88;4.05;;;;;;;4.54;64.86;93986.72;5113103;27;20477;-73
2024/03/24 02:07:24;;;;;;;4.95;3.60;;;;;;;4.65;65.03;93989.34;5116056;27;20029;-73
2024/03/24 02:09:49;;;;;;;5.13;3.55;;;;;;;4.80;63.42;93992.56;5114418;27;20049;-74
2024/03/24 02:12:15;;;;;;;5.97;4.20;;;;;;;4.87;62.78;93999.72;5126855;27;20501;-74
2024/03/24 02:14:40;;;;;;;5.80;3.90;;;;;;;4.64;62.68;93990.28;5129411;27;20061;-73
2024/03/24 02:17:05;;;;;;;5.30;3.45;;;;;;;4.28;64.61;93993.75;5133636;27;20050;-74
2024/03/24 02:19:31;;;;;;;6.65;4.25;;;;;;;4.58;64.52;94003.59;5123896;27;20023;-74
2024/03/24 02:21:56;;;;;;;8.75;4.60;;;;;;;4.44;64.53;93986.59;5148903;27;20186;-74
2024/03/24 02:24:21;;;;;;;5.82;4.10;;;;;;;4.35;64.55;93985.50;5127717;28;20039;-74
2024/03/24 02:26:47;;;;;;;5.18;3.80;;;;;;;4.37;65.57;93991.34;5114726;27;20488;-74
2024/03/24 02:29:13;;;;;;;5.80;3.42;;;;;;;4.48;64.86;93975.13;5112393;28;20035;-74
2024/03/24 02:31:39;;;;;;;5.38;3.50;;;;;;;4.66;65.56;93989.25;5129628;27;20034;-73
2024/03/24 02:34:05;;;;;;;6.93;3.80;;;;;;;4.56;65.75;93990.03;5131673;27;20038;-74
2024/03/24 02:36:31;;;;;;;6.85;3.63;;;;;;;4.60;65.44;93973.44;5133415;27;20031;-74
2024/03/24 02:38:57;;;;;;;4.88;3.63;;;;;;;4.95;64.78;93998.34;5133551;27;20489;-75
2024/03/24 02:41:24;;;;;;;5.93;4.22;;;;;;;4.91;64.15;93993.41;5116384;27;20042;-74
2024/03/24 02:43:49;;;;;;;5.43;3.30;;;;;;;4.74;63.29;93980.97;5133474;27;20015;-74
2024/03/24 02:46:15;;;;;;;6.38;3.60;;;;;;;4.72;63.23;93980.25;5115888;27;20034;-74
2024/03/24 02:48:40;;;;;;;5.25;3.63;;;;;;;4.93;63.41;93980.44;5132460;27;20696;-73
2024/03/24 02:51:06;;;;;;;5.93;3.80;;;;;;;5.01;63.25;93990.97;5098654;27;20031;-74
2024/03/24 02:53:31;;;;;;;5.10;3.38;;;;;;;4.92;62.72;93977.03;5112363;28;20023;-74
2024/03/24 02:55:56;;;;;;;6.70;3.58;;;;;;;5.22;61.00;93978.28;5111616;27;20042;-74
2024/03/24 02:58:22;;;;;;;8.32;4.47;;;;;;;5.36;60.25;93983.19;5132736;27;20022;-74
2024/03/24 03:00:47;;;;;;;7.18;4.70;;;;;;;5.32;59.46;93979.22;5132786;27;20608;-74
2024/03/24 03:03:12;;;;;;;12.43;7.60;;;;;;;5.33;59.80;93972.31;5115357;27;20476;-74
2024/03/24 03:05:38;;;;;;;8.73;5.63;;;;;;;5.62;61.65;93998.44;5151794;27;20034;-74
2024/03/24 03:08:04;;;;;;;11.55;7.80;;;;;;;5.60;61.51;93983.09;5114118;27;20050;-74
2024/03/24 03:10:30;;;;;;;12.48;7.50;;;;;;;5.47;61.70;93992.69;5136135;27;20027;-74
2024/03/24 03:12:57;;;;;;;10.32;5.72;;;;;;;5.75;62.79;93982.88;5115941;27;20092;-74
2024/03/24 03:15:23;;;;;;;7.50;4.38;;;;;;;5.52;62.77;93954.53;5125017;27;20049;-74
2024/03/24 03:17:49;;;;;;;7.78;4.35;;;;;;;5.66;60.84;93973.28;5136988;27;20404;-74
2024/03/24 03:20:14;;;;;;;5.25;3.80;;;;;;;5.81;59.37;93975.47;5154614;27;20038;-74
2024/03/24 03:22:40;;;;;;;5.82;3.58;;;;;;;5.84;58.90;93984.72;5118833;27;20026;-74
2024/03/24 03:25:07;;;;;;;6.68;4.28;;;;;;;5.88;59.65;93985.28;5098627;27;20116;-74
2024/03/24 03:27:32;;;;;;;7.03;4.03;;;;;;;5.83;59.95;93976.19;5108233;27;20027;-74
2024/03/24 03:29:58;;;;;;;6.55;4.03;;;;;;;5.53;61.09;93961.31;5116063;27;20084;-74
2024/03/24 03:32:23;;;;;;;8.07;4.10;;;;;;;5.86;62.11;93971.72;5150679;27;20200;-74
2024/03/24 03:34:48;;;;;;;9.98;4.18;;;;;;;5.68;62.16;93961.88;5118759;27;20511;-73
2024/03/24 03:37:14;;;;;;;5.93;4.00;;;;;;;5.71;61.57;93984.03;5154777;27;20079;-74
2024/03/24 03:39:39;;;;;;;6.40;3.70;;;;;;;5.53;62.08;93983.69;5132994;27;20039;-73
2024/03/24 03:42:05;;;;;;;6.03;3.30;;;;;;;5.47;62.47;93976.44;5132792;27;20529;-74
2024/03/24 03:44:30;;;;;;;4.57;3.30;;;;;;;5.51;63.23;93977.81;5111994;28;20042;-74
2024/03/24 03:46:55;;;;;;;7.45;3.67;;;;;;;5.30;61.62;93978.53;5116178;27;20038;-74
2024/03/24 03:49:21;;;;;;;5.15;3.25;;;;;;;5.45;61.60;93970.56;5132356;27;20481;-75
2024/03/24 03:51:53;;;;;;;8.65;3.83;;;;;;;5.56;59.76;93975.72;5133017;27;20042;-75
2024/03/24 03:54:18;;;;;;;5.75;3.50;;;;;;;5.45;60.50;93962.84;5132442;27;20436;-73
2024/03/24 03:56:44;;;;;;;5.60;3.72;;;;;;;5.37;61.27;93958.25;5115364;27;20032;-74
2024/03/24 03:59:09;;;;;;;5.85;3.40;;;;;;;5.25;61.67;93929.13;5115568;27;20027;-76
2024/03/24 04:01:34;;;;;;;6.22;4.20;;;;;;;5.11;62.89;93947.34;5116058;27;20116;-74
2024/03/24 04:04:00;;;;;;;5.50;4.13;;;;;;;5.25;62.44;93954.88;5133294;27;20500;-73
2024/03/24 04:06:26;;;;;;;5.68;4.15;;;;;;;5.11;63.39;93961.03;5115135;27;20034;-74
2024/03/24 04:08:52;;;;;;;4.75;3.30;;;;;;;5.13;63.02;93958.38;5111469;27;20114;-74
2024/03/24 04:11:17;;;;;;;6.65;3.63;;;;;;;5.05;62.68;93929.81;5107365;27;20027;-74
2024/03/24 04:13:43;;;;;;;5.00;3.42;;;;;;;5.42;63.23;93947.63;5099822;27;20023;-72
2024/03/24 04:16:08;;;;;;;4.75;3.15;;;;;;;5.12;63.42;93946.41;5131400;27;20026;-72
2024/03/24 04:18:34;;;;;;;4.45;3.13;;;;;;;5.08;64.06;93981.06;5131228;27;20405;-72
2024/03/24 04:21:02;;;;;;;8.43;3.38;;;;;;;5.12;64.85;93967.00;5129534;27;20042;-72
2024/03/24 04:23:29;;;;;;;5.53;3.42;;;;;;;5.28;63.89;93951.25;5114064;27;20027;-72
2024/03/24 04:25:54;;;;;;;5.65;3.60;;;;;;;5.14;63.85;93972.88;5132218;27;20031;-72
2024/03/24 04:28:20;;;;;;;5.13;3.13;;;;;;;5.26;62.63;93953.91;5114857;27;20463;-72
2024/03/24 04:30:45;;;;;;;7.15;3.90;;;;;;;5.25;62.20;93956.63;5133434;27;20043;-72
2024/03/24 04:33:11;;;;;;;11.05;7.65;;;;;;;5.17;62.64;93972.66;5128909;27;20023;-73
2024/03/24 04:35:36;;;;;;;7.45;5.80;;;;;;;4.84;64.28;93976.78;5114812;27;20035;-72
2024/03/24 04:38:02;;;;;;;8.75;6.10;;;;;;;5.00;64.14;93975.66;5124063;27;20504;-72
2024/03/24 04:40:27;;;;;;;12.45;7.00;;;;;;;4.76;64.21;93971.38;5093733;27;20088;-72
2024/03/24 04:42:53;;;;;;;8.90;5.85;;;;;;;4.91;64.03;93977.16;5122422;27;20468;-72
2024/03/24 04:45:19;;;;;;;6.55;4.55;;;;;;;5.10;64.15;93989.50;5145257;27;20054;-73
2024/03/24 04:47:44;;;;;;;7.57;5.22;;;;;;;5.14;63.47;94002.00;5146401;27;20027;-72
2024/03/24 04:50:09;;;;;;;7.32;4.68;;;;;;;5.12;62.61;94009.03;5152692;27;20039;-72
2024/03/24 04:52:35;;;;;;;6.63;4.03;;;;;;;4.61;63.34;93993.09;5112781;27;20477;-74
2024/03/24 04:55:01;;;;;;;6.88;4.80;;;;;;;4.32;65.77;93997.75;5096063;27;20473;-75
2024/03/24 04:57:27;;;;;;;7.70;6.00;;;;;;;4.59;65.49;93995.75;5098852;27;20031;-72
2024/03/24 04:59:53;;;;;;;6.63;4.68;;;;;;;4.37;65.64;93999.03;5143853;27;20515;-72
2024/03/24 05:02:18;;;;;;;6.20;4.63;;;;;;;4.39;65.96;94007.47;5152908;27;20034;-72
2024/03/24 05:04:44;;;;;;;7.57;5.22;;;;;;;4.54;66.78;94004.75;5115925;27;20043;-72
2024/03/24 05:07:09;;;;;;;9.13;5.80;;;;;;;4.46;66.96;94018.19;5115920;27;20034;-72
2024/03/24 05:09:35;;;;;;;7.93;5.20;;;;;;;4.59;66.51;94021.47;5117340;27;20103;-74
2024/03/24 05:12:00;;;;;;;6.43;4.00;;;;;;;4.66;66.25;94011.59;5150338;27;20041;-72
2024/03/24 05:14:26;;;;;;;5.63;3.88;;;;;;;4.62;65.81;94010.97;5108105;27;20031;-72
2024/03/24 05:16:53;;;;;;;6.03;3.50;;;;;;;4.59;66.29;94013.75;5087098;27;20039;-72
2024/03/24 05:19:18;;;;;;;5.53;3.45;;;;;;;4.94;65.45;94005.25;5143189;27;20031;-72
2024/03/24 05:21:45;;;;;;;6.28;3.95;;;;;;;4.91;64.75;94005.47;5126560;27;20496;-72
2024/03/24 05:24:11;;;;;;;5.47;4.13;;;;;;;4.96;65.60;94010.28;5123638;27;20031;-73
2024/03/24 05:26:36;;;;;;;5.60;3.75;;;;;;;4.84;66.03;93983.69;5110302;27;20389;-72
2024/03/24 05:29:04;;;;;;;10.18;5.97;;;;;;;5.13;66.05;94004.72;5128248;27;20026;-72
2024/03/24 05:31:30;;;;;;;7.88;5.05;;;;;;;5.41;65.65;93995.75;5152934;27;20472;-72
2024/03/24 05:33:55;;;;;;;6.88;4.15;;;;;;;5.90;64.44;93993.75;5099974;27;20027;-72
2024/03/24 05:36:20;;;;;;;6.75;4.28;;;;;;;6.19;62.05;94002.66;5096421;27;20039;-72
2024/03/24 05:38:46;;;;;;;7.05;4.10;;;;;;;6.37;62.57;93992.63;5095140;28;20051;-72
2024/03/24 05:41:11;;;;;;;4.80;3.65;;;;;;;6.80;61.01;93994.38;5109308;28;20035;-72
2024/03/24 05:43:37;;;;;;;5.82;3.67;;;;;;;7.01;59.62;93989.19;5074609;28;20409;-72
2024/03/24 05:46:05;;;;;;;5.55;3.75;;;;;;;7.21;58.87;94002.25;5109262;28;20023;-72
2024/03/24 05:48:31;;;;;;;4.88;3.50;;;;;;;7.37;59.22;93987.13;5089897;28;20024;-72
2024/03/24 05:51:00;;;;;;;4.93;3.30;;;;;;;7.65;57.71;94000.31;5103052;28;20394;-73
2024/03/24 05:53:25;;;;;;;6.50;3.05;;;;;;;7.91;57.81;94004.13;5108687;28;20024;-72
2024/03/24 05:55:51;;;;;;;6.75;3.95;;;;;;;8.54;55.71;94018.59;5109751;28;20070;-72
2024/03/24 05:58:20;;;;;;;5.45;3.78;;;;;;;9.03;53.90;94003.91;5111724;28;20478;-72
2024/03/24 06:00:46;;;;;;;20.50;12.02;;;;;;;9.06;52.49;94008.81;5092324;28;20482;-72
2024/03/24 06:03:11;;;;;;;7.55;5.85;;;;;;;9.39;51.36;94012.75;5106614;28;20030;-73
2024/03/24 06:05:39;;;;;;;5.57;4.15;;;;;;;9.82;51.90;93985.44;5110538;28;20036;-73
2024/03/24 06:08:08;;;;;;;8.43;6.28;;;;;;;10.15;49.30;94001.44;5085499;28;20130;-73
2024/03/24 06:10:34;;;;;;;9.80;6.20;;;;;;;10.08;50.12;93980.41;5107920;28;20039;-73
2024/03/24 06:13:00;;;;;;;12.88;7.85;;;;;;;10.17;49.96;93995.13;5077776;28;20016;-73
2024/03/24 06:15:25;;;;;;;7.32;5.07;;;;;;;10.90;49.03;93994.28;5108613;28;20519;-73
2024/03/24 06:17:51;;;;;;;19.83;10.77;;;;;;;10.81;47.28;93998.59;5104678;28;20434;-73
2024/03/24 06:20:16;;;;;;;21.85;14.07;;;;;;;10.59;48.08;93993.84;5087072;28;20044;-73
2024/03/24 06:22:41;;;;;;;16.98;10.18;;;;;;;11.27;48.09;93990.69;5075241;28;20032;-73
2024/03/24 06:25:07;;;;;;;14.38;8.85;;;;;;;11.48;46.70;93978.19;5107724;28;20043;-74
2024/03/24 06:27:32;;;;;;;12.05;8.50;;;;;;;10.97;47.92;93992.72;5097822;28;20176;-73
2024/03/24 06:29:58;;;;;;;10.43;6.18;;;;;;;10.97;47.52;93992.72;5087780;28;20024;-73
2024/03/24 06:32:23;;;;;;;11.27;7.75;;;;;;;10.92;47.48;93984.56;5072376;28;20036;-74
2024/03/24 06:34:49;;;;;;;13.50;7.28;;;;;;;11.09;47.38;93986.34;5104579;28;20096;-73
2024/03/24 06:37:14;;;;;;;13.68;6.85;;;;;;;11.04;47.48;93991.16;5108641;28;20027;-73
2024/03/24 06:39:39;;;;;;;9.00;5.35;;;;;;;11.14;47.34;93994.50;5095260;28;20437;-74
2024/03/24 06:42:08;;;;;;;8.35;5.18;;;;;;;10.85;47.55;93947.16;5089168;28;20040;-76
2024/03/24 06:44:37;;;;;;;9.48;5.90;;;;;;;11.11;47.15;93974.00;5103683;28;20032;-75
2024/03/24 06:47:07;;;;;;;8.60;6.15;;;;;;;10.86;47.56;93969.56;5099265;28;20467;-74
2024/03/24 06:49:33;;;;;;;7.45;5.45;;;;;;;10.95;47.56;93984.28;5109328;28;20028;-74
2024/03/24 06:51:58;;;;;;;6.90;4.35;;;;;;;11.74;45.56;93962.53;5105800;27;20042;-74
2024/03/24 06:54:23;;;;;;;15.68;8.05;;;;;;;12.05;44.77;93969.88;5099481;28;20036;-74
2024/03/24 06:56:49;;;;;;;13.27;8.90;;;;;;;11.50;46.21;93963.22;5081649;28;20043;-78
2024/03/24 06:59:14;;;;;;;10.05;6.68;;;;;;;11.30;46.91;93978.19;5078306;28;20105;-77
2024/03/24 07:01:40;;;;;;;11.90;8.73;;;;;;;11.03;47.64;93976.56;5111843;28;20038;-75
2024/03/24 07:04:05;;;;;;;17.13;10.77;;;;;;;11.14;47.67;93978.91;5109549;28;20459;-76
2024/03/24 07:06:32;;;;;;;17.38;7.80;;;;;;;11.68;46.87;93976.19;5111654;28;20040;-75
2024/03/24 07:08:57;;;;;;;10.55;7.25;;;;;;;11.44;47.06;93981.22;5073621;28;20024;-79
2024/03/24 07:11:23;;;;;;;6.32;4.70;;;;;;;11.47;46.92;93976.53;5074679;28;20032;-77
2024/03/24 07:13:48;;;;;;;9.55;4.70;;;;;;;11.98;45.50;93980.13;5108320;27;20043;-76
2024/03/24 07:16:14;;;;;;;8.38;4.70;;;;;;;11.63;46.70;93978.41;5107579;28;20024;-78
2024/03/24 07:18:39;;;;;;;6.97;4.53;;;;;;;12.16;45.78;93974.81;5112668;28;20028;-79
2024/03/24 07:21:06;;;;;;;7.20;4.88;;;;;;;12.03;46.43;93964.81;5109359;28;20088;-79
2024/03/24 07:23:31;;;;;;;7.43;4.60;;;;;;;12.25;45.17;93952.22;5101615;28;20037;-78
2024/03/24 07:25:57;;;;;;;25.90;17.52;;;;;;;11.84;46.63;93950.25;5091064;28;20024;-79
2024/03/24 07:28:22;;;;;;;10.77;8.05;;;;;;;11.66;47.04;93946.09;5090095;28;20421;-81
2024/03/24 07:30:48;;;;;;;8.88;6.30;;;;;;;11.69;47.41;93958.78;5090215;28;20110;-77
2024/03/24 07:33:16;;;;;;;7.45;5.13;;;;;;;12.19;46.94;93958.88;5109435;28;20016;-80
2024/03/24 07:35:42;;;;;;;9.07;5.97;;;;;;;12.50;45.71;93953.91;5109996;28;20401;-79
2024/03/24 07:38:08;;;;;;;5.53;4.28;;;;;;;11.91;46.60;93936.63;5114362;27;20031;-77
2024/03/24 07:40:33;;;;;;;10.48;5.72;;;;;;;11.98;46.80;93938.47;5135245;27;20023;-79
2024/03/24 07:42:59;;;;;;;8.52;6.03;;;;;;;11.85;46.94;93922.44;5111065;27;20488;-78
2024/03/24 07:45:24;;;;;;;6.82;4.00;;;;;;;11.90;46.95;93912.41;5098676;27;20063;-79
2024/03/24 07:47:50;;;;;;;8.05;5.07;;;;;;;12.56;45.67;93913.38;5152981;27;20469;-80
2024/03/24 07:50:16;;;;;;;10.65;4.60;;;;;;;12.26;46.55;93907.00;5134616;27;20027;-79
2024/03/24 07:52:41;;;;;;;7.18;4.88;;;;;;;12.06;46.92;93915.06;5135194;27;20113;-79
2024/03/24 07:55:07;;;;;;;9.18;5.10;;;;;;;11.99;47.33;93916.66;5094776;27;20031;-77
2024/03/24 07:57:33;;;;;;;7.32;4.45;;;;;;;12.03;47.32;93910.16;5152871;27;20018;-78
2024/03/24 07:59:58;;;;;;;7.25;5.32;;;;;;;12.06;47.91;93922.03;5155013;27;20098;-77
2024/03/24 08:02:24;;;;;;;11.02;6.03;;;;;;;12.43;46.92;93920.88;5136022;27;20110;-77
2024/03/24 08:04:49;;;;;;;8.95;4.15;;;;;;;12.67;46.05;93925.28;5133799;27;20030;-77
2024/03/24 08:07:14;;;;;;;5.82;4.35;;;;;;;12.40;45.78;93924.59;5135526;27;20039;-77
2024/03/24 08:09:40;;;;;;;5.90;4.43;;;;;;;12.38;45.77;93917.91;5136174;27;20022;-78
2024/03/24 08:12:05;;;;;;;8.25;5.15;;;;;;;12.73;45.02;93920.25;5135643;27;20107;-78
2024/03/24 08:14:31;;;;;;;7.25;3.85;;;;;;;13.37;42.80;93917.81;5154281;27;20561;-77
2024/03/24 08:16:57;;;;;;;6.43;3.90;;;;;;;13.09;43.14;93903.47;5153985;27;20477;-77
2024/03/24 08:19:24;;;;;;;7.43;4.38;;;;;;;13.22;43.92;93914.22;5154091;27;20075;-75
2024/03/24 08:21:50;;;;;;;6.95;4.70;;;;;;;13.03;43.71;93904.94;5136185;27;20027;-76
2024/03/24 08:24:17;;;;;;;7.80;4.60;;;;;;;13.45;42.91;93877.03;5118333;27;20087;-75
2024/03/24 08:26:42;;;;;;;8.32;4.90;;;;;;;13.34;43.27;93899.88;5154610;27;20059;-75
2024/03/24 08:29:08;;;;;;;7.45;4.88;;;;;;;13.07;43.72;93895.00;5118788;27;20019;-77
2024/03/24 08:31:33;;;;;;;6.45;4.20;;;;;;;13.63;42.75;93882.84;5154283;27;20068;-77
2024/03/24 08:33:58;;;;;;;7.70;5.45;;;;;;;13.43;43.11;93877.22;5135895;27;20027;-75
2024/03/24 08:36:24;;;;;;;7.95;5.15;;;;;;;13.18;43.73;93879.84;5135532;27;20031;-77
2024/03/24 08:38:49;;;;;;;8.40;5.50;;;;;;;13.35;44.29;93883.25;5135387;27;20047;-77
2024/03/24 08:41:14;;;;;;;9.40;6.05;;;;;;;13.63;43.82;93890.69;5154213;27;20027;-78
2024/03/24 08:43:40;;;;;;;8.07;4.97;;;;;;;13.38;43.78;93879.50;5135287;27;20040;-78
2024/03/24 08:46:05;;;;;;;6.75;4.70;;;;;;;13.32;43.95;93870.56;5135232;27;20049;-78
2024/03/24 08:48:31;;;;;;;5.80;4.28;;;;;;;13.52;43.08;93872.78;5153792;27;20381;-78
2024/03/24 08:50:56;;;;;;;6.32;4.80;;;;;;;13.80;41.97;93853.09;5135277;27;20026;-78
2024/03/24 08:53:21;;;;;;;9.18;4.40;;;;;;;14.10;41.69;93855.91;5117880;27;20030;-77
2024/03/24 08:55:47;;;;;;;7.47;4.80;;;;;;;13.76;42.79;93845.78;5135091;27;20031;-77
2024/03/24 08:58:13;;;;;;;6.35;4.38;;;;;;;13.69;42.56;93845.66;5117991;27;20027;-77
2024/03/24 09:00:40;;;;;;;9.52;5.07;;;;;;;13.86;42.68;93828.91;5134980;27;20068;-78
2024/03/24 09:03:05;;;;;;;5.63;4.25;;;;;;;13.99;42.45;93831.00;5135254;27;20062;-78
2024/03/24 09:05:31;;;;;;;6.95;4.38;;;;;;;13.89;42.35;93822.56;5117898;27;20107;-78
2024/03/24 09:07:57;;;;;;;4.97;4.10;;;;;;;14.09;42.43;93815.91;5134265;27;20042;-76
2024/03/24 09:10:22;;;;;;;7.30;4.53;;;;;;;14.16;41.88;93821.25;5153203;27;20035;-78
2024/03/24 09:12:48;;;;;;;6.43;4.35;;;;;;;13.94;42.07;93817.63;5117257;27;20505;-78
2024/03/24 09:15:14;;;;;;;8.10;4.63;;;;;;;13.98;42.43;93821.50;5134963;27;20404;-78
2024/03/24 09:17:39;;;;;;;6.47;4.10;;;;;;;13.99;42.42;93820.53;5134569;27;20018;-76
2024/03/24 09:20:05;;;;;;;6.57;4.30;;;;;;;14.21;41.87;93821.56;5134646;27;20046;-78
2024/03/24 09:22:31;;;;;;;7.90;4.28;;;;;;;14.03;42.04;93823.63;5134610;27;20033;-77
2024/03/24 09:24:56;;;;;;;7.28;4.75;;;;;;;14.00;41.75;93830.00;5149499;27;20049;-78
2024/03/24 09:27:21;;;;;;;5.65;4.15;;;;;;;13.93;41.71;93817.78;5127323;27;20404;-77
2024/03/24 09:29:47;;;;;;;10.80;5.55;;;;;;;14.13;42.06;93813.78;5126505;27;20022;-76
2024/03/24 09:32:12;;;;;;;5.00;4.00;;;;;;;14.54;41.41;93813.50;5148067;27;20027;-78
2024/03/24 09:34:38;;;;;;;5.20;3.78;;;;;;;14.71;40.33;93801.94;5087235;27;20031;-77
2024/03/24 09:37:04;;;;;;;7.53;4.40;;;;;;;14.48;41.35;93803.72;5099311;27;20023;-75
2024/03/24 09:39:29;;;;;;;6.97;4.28;;;;;;;14.50;41.31;93796.53;5140142;27;20039;-77
2024/03/24 09:41:55;;;;;;;6.65;4.32;;;;;;;14.79;40.25;93798.44;5131964;27;20031;-77
2024/03/24 09:44:20;;;;;;;4.50;3.80;;;;;;;14.89;38.58;93787.72;5098659;27;20034;-77
2024/03/24 09:46:46;;;;;;;5.22;3.50;;;;;;;15.24;37.95;93790.63;5115616;27;20041;-77
2024/03/24 09:49:12;;;;;;;4.32;3.88;;;;;;;15.03;38.70;93783.50;5115117;27;20018;-77
2024/03/24 09:51:46;;;;;;;8.55;3.50;;;;;;;15.32;39.15;93786.16;5121585;27;20066;-75
2024/03/24 09:54:12;;;;;;;5.03;3.60;;;;;;;14.93;38.32;93773.31;5147102;27;20042;-77
2024/03/24 09:56:37;;;;;;;4.88;3.38;;;;;;;15.33;37.56;93773.88;5115595;27;20473;-77
2024/03/24 09:59:03;;;;;;;4.22;3.35;;;;;;;15.17;38.25;93765.22;5116011;27;20022;-75
2024/03/24 10:01:30;;;;;;;4.63;3.47;;;;;;;15.25;37.22;93756.47;5129313;28;20537;-75
2024/03/24 10:03:55;;;;;;;4.53;3.47;;;;;;;15.57;36.40;93744.81;5140695;27;20079;-76
2024/03/24 10:06:22;;;;;;;4.85;3.40;;;;;;;15.75;36.48;93749.66;5116725;27;20031;-76
2024/03/24 10:08:48;;;;;;;5.75;3.70;;;;;;;15.90;36.28;93748.81;5097708;28;20064;-76
2024/03/24 10:11:28;;;;;;;5.57;3.80;;;;;;;15.67;36.57;93743.69;5096474;28;20027;-76
2024/03/24 10:13:54;;;;;;;6.00;3.75;;;;;;;15.99;35.37;93742.44;5129757;27;20023;-78
2024/03/24 10:16:20;;;;;;;5.72;3.10;;;;;;;16.19;35.70;93732.19;5096444;28;20503;-76
2024/03/24 10:18:45;;;;;;;4.80;3.70;;;;;;;15.73;36.84;93737.75;5099776;27;20045;-78
2024/03/24 10:21:11;;;;;;;7.18;3.72;;;;;;;15.57;36.67;93729.09;5117500;27;20550;-76
2024/03/24 10:23:37;;;;;;;4.82;3.50;;;;;;;16.02;35.20;93727.19;5121815;27;20110;-76
2024/03/24 10:26:03;;;;;;;5.07;3.45;;;;;;;15.80;35.16;93717.69;5119679;27;20073;-76
2024/03/24 10:28:28;;;;;;;4.78;3.30;;;;;;;15.99;34.57;93722.34;5119981;27;20454;-73
2024/03/24 10:31:03;;;;;;;4.55;3.28;;;;;;;16.18;34.30;93707.78;5104937;27;20493;-83
2024/03/24 10:33:31;;;;;;;5.55;2.95;;;;;;;16.30;34.32;93702.88;5094672;27;20047;-73
2024/03/24 10:35:57;;;;;;;5.05;3.20;;;;;;;16.54;33.73;93694.56;5144797;27;20398;-75
2024/03/24 10:38:23;;;;;;;4.95;3.10;;;;;;;16.70;33.93;93695.28;5103695;27;20050;-73
2024/03/24 10:40:49;;;;;;;5.07;3.22;;;;;;;16.92;33.38;93691.63;5152544;27;20055;-73
2024/03/24 10:43:14;;;;;;;4.78;2.75;;;;;;;17.17;33.24;93706.91;5117795;27;20019;-73
2024/03/24 10:45:40;;;;;;;4.50;2.78;;;;;;;16.46;32.79;93681.59;5119401;27;20091;-73
2024/03/24 10:48:07;;;;;;;6.18;3.30;;;;;;;16.82;33.58;93691.16;5133113;27;20068;-73
2024/03/24 10:50:32;;;;;;;5.32;2.72;;;;;;;17.25;32.50;93696.25;5099865;27;20035;-74
2024/03/24 10:52:59;;;;;;;4.55;2.67;;;;;;;17.37;31.84;93686.81;5122862;27;20397;-74
2024/03/24 10:55:24;;;;;;;3.65;2.58;;;;;;;17.54;31.21;93679.41;5119680;27;20045;-73
2024/03/24 10:57:51;;;;;;;3.85;2.60;;;;;;;17.74;30.96;93670.78;5132613;27;20027;-72
2024/03/24 11:00:17;;;;;;;4.68;2.60;;;;;;;18.02;30.08;93670.66;5118656;27;20080;-73
2024/03/24 11:02:42;;;;;;;2.90;2.30;;;;;;;18.06;29.49;93677.13;5143651;27;20023;-73
2024/03/24 11:05:08;;;;;;;4.75;2.50;;;;;;;18.18;29.60;93670.28;5141114;27;20473;-72
2024/03/24 11:07:34;;;;;;;3.50;2.38;;;;;;;18.34;30.18;93676.16;5116691;27;20029;-73
2024/03/24 11:09:59;;;;;;;3.10;2.50;;;;;;;18.40;29.30;93683.22;5115129;27;20564;-73
2024/03/24 11:12:25;;;;;;;3.90;2.90;;;;;;;18.35;29.99;93670.69;5101173;27;20031;-73
2024/03/24 11:14:50;;;;;;;4.55;2.80;;;;;;;18.36;29.95;93674.13;5131677;27;20428;-73
2024/03/24 11:17:15;;;;;;;6.38;2.67;;;;;;;18.50;29.98;93681.00;5109895;27;20098;-72
2024/03/24 11:19:50;;;;;;;7.45;2.95;;;;;;;18.51;29.51;93688.69;5122739;27;20023;-73
2024/03/24 11:22:21;;;;;;;4.53;2.65;;;;;;;18.44;29.91;93661.59;5141796;27;20134;-74
2024/03/24 11:24:46;;;;;;;5.85;3.38;;;;;;;18.51;30.23;93664.22;5114799;27;20027;-73
2024/03/24 11:27:23;;;;;;;4.25;3.00;;;;;;;18.57;29.86;93660.75;5133805;27;20023;-74
2024/03/24 11:29:49;;;;;;;6.35;2.90;;;;;;;18.33;30.25;93651.69;5116488;27;20038;-74